createdAt,value
2022-10-23T00:01:40.014Z,36.08
2022-10-23T00:04:16.365Z,33.53
2022-10-23T00:06:44.439Z,28.63
2022-10-23T00:09:13.965Z,29.73
2022-10-23T00:11:42.149Z,30.00
2022-10-23T00:14:09.583Z,26.55
2022-10-23T00:16:36.939Z,32.90
2022-10-23T00:19:04.528Z,33.22
2022-10-23T00:21:31.482Z,37.35
2022-10-23T00:23:58.388Z,28.38
2022-10-23T00:26:25.367Z,33.35
2022-10-23T00:28:54.364Z,37.05
2022-10-23T00:31:24.307Z,35.22
2022-10-23T00:33:52.404Z,37.45
2022-10-23T00:36:21.324Z,37.00
2022-10-23T00:38:49.511Z,34.40
2022-10-23T00:41:32.233Z,31.77
2022-10-23T00:44:28.063Z,33.85
2022-10-23T00:46:55.488Z,38.90
2022-10-23T00:49:25.745Z,37.97
2022-10-23T00:51:57.652Z,37.50
2022-10-23T00:54:30.002Z,36.40
2022-10-23T00:57:00.085Z,34.85
2022-10-23T00:59:28.941Z,37.20
2022-10-23T01:01:56.610Z,38.60
2022-10-23T01:04:24.120Z,44.88
2022-10-23T01:07:17.762Z,38.97
2022-10-23T01:10:48.462Z,43.88
2022-10-23T01:14:00.154Z,41.15
2022-10-23T01:16:53.504Z,32.72
2022-10-23T01:19:51.439Z,39.15
2022-10-23T01:22:57.539Z,40.80
2022-10-23T01:26:07.926Z,30.63
2022-10-23T01:28:48.628Z,33.13
2022-10-23T01:31:26.103Z,36.75
2022-10-23T01:34:01.136Z,31.58
2022-10-23T01:36:30.904Z,33.78
2022-10-23T01:41:44.457Z,39.20
2022-10-23T01:44:24.017Z,36.92
2022-10-23T01:46:53.260Z,34.20
2022-10-23T01:49:23.294Z,37.97
2022-10-23T01:52:02.643Z,35.30
2022-10-23T01:54:34.310Z,31.05
2022-10-23T01:57:03.613Z,36.90
2022-10-23T01:59:42.122Z,35.30
2022-10-23T02:02:12.173Z,30.92
2022-10-23T02:04:56.244Z,39.58
2022-10-23T02:07:23.748Z,35.60
2022-10-23T02:09:50.811Z,37.00
2022-10-23T02:12:58.847Z,34.70
2022-10-23T02:15:37.757Z,34.03
2022-10-23T02:18:35.993Z,34.85
2022-10-23T02:21:15.807Z,37.13
2022-10-23T02:24:01.500Z,34.30
2022-10-23T02:26:44.665Z,44.42
2022-10-23T02:29:25.446Z,36.00
2022-10-23T02:31:52.455Z,39.13
2022-10-23T02:34:19.909Z,42.13
2022-10-23T02:36:46.989Z,35.85
2022-10-23T02:39:14.056Z,42.47
2022-10-23T02:42:09.075Z,47.92
2022-10-23T02:45:04.597Z,39.15
2022-10-23T02:47:48.338Z,39.38
2022-10-23T02:50:56.570Z,43.78
2022-10-23T02:53:46.168Z,34.78
2022-10-23T02:56:52.863Z,40.70
2022-10-23T02:59:36.428Z,41.25
2022-10-23T03:02:26.739Z,39.45
2022-10-23T03:04:56.130Z,46.63
2022-10-23T03:07:25.805Z,42.22
2022-10-23T03:10:02.083Z,42.47
2022-10-23T03:12:30.766Z,46.83
2022-10-23T03:14:59.151Z,46.38
2022-10-23T03:17:26.052Z,42.95
2022-10-23T03:19:56.147Z,38.17
2022-10-23T03:22:23.053Z,41.83
2022-10-23T03:24:50.067Z,38.00
2022-10-23T03:27:17.079Z,43.97
2022-10-23T03:29:44.074Z,40.95
2022-10-23T03:32:11.169Z,43.85
2022-10-23T03:34:38.239Z,38.97
2022-10-23T03:37:05.454Z,34.63
2022-10-23T03:39:32.359Z,39.90
2022-10-23T03:41:59.252Z,42.72
2022-10-23T03:44:28.016Z,44.45
2022-10-23T03:46:58.072Z,43.25
2022-10-23T03:49:24.967Z,37.97
2022-10-23T03:51:52.879Z,36.90
2022-10-23T03:54:26.969Z,42.30
2022-10-23T03:56:57.374Z,42.38
2022-10-23T03:59:26.347Z,44.20
2022-10-23T04:01:53.794Z,40.47
2022-10-23T04:04:20.773Z,41.15
2022-10-23T04:06:48.022Z,40.75
2022-10-23T04:09:15.090Z,47.17
2022-10-23T04:11:44.057Z,44.13
2022-10-23T04:14:14.481Z,39.75
2022-10-23T04:16:41.589Z,39.67
2022-10-23T04:19:09.340Z,46.58
2022-10-23T04:21:36.272Z,42.78
2022-10-23T04:24:03.710Z,41.90
2022-10-23T04:26:30.796Z,45.05
2022-10-23T04:28:57.740Z,37.70
2022-10-23T04:31:24.767Z,38.55
2022-10-23T04:33:51.869Z,33.58
2022-10-23T04:36:30.203Z,39.25
2022-10-23T04:39:04.615Z,41.03
2022-10-23T04:41:31.577Z,39.03
2022-10-23T04:43:58.431Z,41.65
2022-10-23T04:46:25.656Z,43.03
2022-10-23T04:48:52.618Z,38.78
2022-10-23T04:51:22.137Z,39.28
2022-10-23T04:54:01.014Z,40.80
2022-10-23T04:56:42.162Z,37.45
2022-10-23T04:59:14.130Z,44.03
2022-10-23T05:01:42.508Z,42.28
2022-10-23T05:04:10.176Z,34.78
2022-10-23T05:07:00.293Z,41.88
2022-10-23T05:09:47.047Z,37.88
2022-10-23T05:12:26.637Z,37.22
2022-10-23T05:14:54.382Z,37.40
2022-10-23T05:17:29.792Z,38.30
2022-10-23T05:19:59.658Z,42.25
2022-10-23T05:22:32.548Z,36.90
2022-10-23T05:25:01.989Z,42.20
2022-10-23T05:27:31.621Z,40.55
2022-10-23T05:29:58.925Z,34.67
2022-10-23T05:32:31.395Z,37.00
2022-10-23T05:35:01.625Z,39.60
2022-10-23T05:37:30.838Z,33.03
2022-10-23T05:40:07.429Z,35.72
2022-10-23T05:42:39.467Z,42.50
2022-10-23T05:45:09.244Z,35.58
2022-10-23T05:48:11.348Z,42.63
2022-10-23T05:51:11.949Z,36.25
2022-10-23T05:54:02.022Z,39.20
2022-10-23T05:56:41.642Z,52.75
2022-10-23T05:59:20.431Z,50.80
2022-10-23T06:01:59.391Z,46.20
2022-10-23T06:04:39.250Z,36.90
2022-10-23T06:07:35.921Z,36.50
2022-10-23T06:10:06.234Z,38.25
2022-10-23T06:12:36.273Z,36.08
2022-10-23T06:15:04.524Z,38.10
2022-10-23T06:17:52.667Z,30.65
2022-10-23T06:20:23.066Z,32.33
2022-10-23T06:23:01.528Z,27.88
2022-10-23T06:25:53.554Z,30.75
2022-10-23T06:28:25.636Z,31.23
2022-10-23T06:30:52.817Z,26.10
2022-10-23T06:33:20.178Z,33.33
2022-10-23T06:35:47.905Z,26.75
2022-10-23T06:38:15.378Z,34.75
2022-10-23T06:40:56.661Z,26.77
2022-10-23T06:43:31.633Z,31.55
2022-10-23T06:46:15.396Z,37.75
2022-10-23T06:49:00.646Z,37.22
2022-10-23T06:51:31.881Z,42.50
2022-10-23T06:53:58.754Z,36.25
2022-10-23T06:56:57.289Z,31.70
2022-10-23T06:59:34.224Z,34.22
2022-10-23T07:02:01.301Z,35.17
2022-10-23T07:04:28.366Z,38.85
2022-10-23T07:07:00.176Z,35.03
2022-10-23T07:09:36.374Z,28.02
2022-10-23T07:12:18.467Z,29.60
2022-10-23T07:14:51.241Z,32.45
2022-10-23T07:17:18.206Z,36.10
2022-10-23T07:19:46.991Z,32.65
2022-10-23T07:22:16.161Z,32.78
2022-10-23T07:25:09.639Z,29.40
2022-10-23T07:27:39.153Z,36.80
2022-10-23T07:30:09.613Z,26.40
2022-10-23T07:32:45.792Z,29.10
2022-10-23T07:35:33.095Z,33.28
2022-10-23T07:38:09.251Z,32.38
2022-10-23T07:40:41.950Z,25.13
2022-10-23T07:43:10.689Z,33.17
2022-10-23T07:45:37.655Z,24.38
2022-10-23T07:48:14.250Z,35.47
2022-10-23T07:51:08.495Z,32.13
2022-10-23T07:53:40.216Z,27.00
2022-10-23T07:56:29.835Z,21.52
2022-10-23T07:59:13.779Z,32.72
2022-10-23T08:01:43.749Z,24.27
2022-10-23T08:04:10.926Z,27.42
2022-10-23T08:06:45.903Z,27.23
2022-10-23T08:09:12.860Z,25.25
2022-10-23T08:11:42.420Z,25.88
2022-10-23T08:14:11.603Z,28.83
2022-10-23T08:16:42.317Z,27.85
2022-10-23T08:19:29.184Z,26.95
2022-10-23T08:21:57.317Z,26.65
2022-10-23T08:24:24.282Z,27.92
2022-10-23T08:26:51.723Z,27.77
2022-10-23T08:29:22.464Z,24.50
2022-10-23T08:31:53.304Z,21.02
2022-10-23T08:34:31.469Z,23.15
2022-10-23T08:37:00.530Z,27.20
2022-10-23T08:39:27.972Z,24.00
2022-10-23T08:42:26.111Z,30.42
2022-10-23T08:45:30.832Z,24.02
2022-10-23T08:48:21.041Z,25.40
2022-10-23T08:51:44.034Z,32.13
2022-10-23T08:54:17.169Z,34.03
2022-10-23T08:56:52.422Z,26.10
2022-10-23T08:59:38.015Z,24.52
2022-10-23T09:02:26.792Z,30.30
2022-10-23T09:04:56.582Z,27.75
2022-10-23T09:07:56.321Z,26.17
2022-10-23T09:10:48.097Z,29.38
2022-10-23T09:13:55.790Z,26.90
2022-10-23T09:17:00.288Z,25.50
2022-10-23T09:19:29.420Z,29.33
2022-10-23T09:21:57.587Z,28.65
2022-10-23T09:24:28.450Z,29.67
2022-10-23T09:26:55.423Z,22.50
2022-10-23T09:29:27.096Z,33.53
2022-10-23T09:32:00.306Z,32.67
2022-10-23T09:34:30.635Z,22.70
2022-10-23T09:37:02.144Z,24.38
2022-10-23T09:39:36.754Z,24.20
2022-10-23T09:42:26.140Z,22.02
2022-10-23T09:44:55.537Z,26.48
2022-10-23T09:47:25.317Z,24.75
2022-10-23T09:49:56.475Z,24.30
2022-10-23T09:52:45.448Z,28.15
2022-10-23T09:55:30.686Z,27.92
2022-10-23T09:57:57.819Z,26.05
2022-10-23T10:00:27.559Z,24.17
2022-10-23T10:02:57.507Z,27.13
2022-10-23T10:05:44.521Z,25.10
2022-10-23T10:08:48.675Z,19.00
2022-10-23T10:11:33.717Z,25.50
2022-10-23T10:14:50.005Z,19.33
2022-10-23T10:17:36.421Z,19.67
2022-10-23T10:20:20.810Z,21.63
2022-10-23T10:23:23.330Z,20.25
2022-10-23T10:26:12.839Z,22.05
2022-10-23T10:29:16.490Z,22.67
2022-10-23T10:32:27.370Z,23.02
2022-10-23T10:35:22.542Z,18.20
2022-10-23T10:38:20.939Z,17.17
2022-10-23T10:41:28.888Z,18.50
2022-10-23T10:44:17.441Z,13.32
2022-10-23T10:46:53.108Z,15.45
2022-10-23T10:49:27.614Z,13.90
2022-10-23T10:52:17.927Z,17.23
2022-10-23T10:55:28.689Z,20.02
2022-10-23T10:58:06.108Z,17.02
2022-10-23T11:00:34.266Z,15.93
2022-10-23T11:03:28.148Z,13.85
2022-10-23T11:08:49.868Z,14.50
2022-10-23T11:11:36.507Z,16.73
2022-10-23T11:14:03.599Z,18.58
2022-10-23T11:16:36.098Z,18.17
2022-10-23T11:19:22.768Z,24.70
2022-10-23T11:22:19.499Z,21.85
2022-10-23T11:25:22.324Z,19.55
2022-10-23T11:28:26.197Z,17.80
2022-10-23T11:31:57.392Z,22.25
2022-10-23T11:35:07.012Z,22.75
2022-10-23T11:37:34.141Z,22.40
2022-10-23T11:40:06.939Z,15.73
2022-10-23T11:42:47.906Z,19.88
2022-10-23T11:45:40.765Z,17.95
2022-10-23T11:48:36.408Z,20.70
2022-10-23T11:51:05.298Z,20.42
2022-10-23T11:53:32.204Z,14.70
2022-10-23T11:56:12.592Z,14.15
2022-10-23T11:58:56.844Z,15.57
2022-10-23T12:01:43.008Z,15.93
2022-10-23T12:04:12.836Z,19.63
2022-10-23T12:07:01.774Z,18.10
2022-10-23T12:09:44.669Z,16.08
2022-10-23T12:12:11.420Z,16.67
2022-10-23T12:14:45.850Z,14.93
2022-10-23T12:17:30.630Z,14.52
2022-10-23T12:20:12.748Z,16.73
2022-10-23T12:22:56.776Z,17.27
2022-10-23T12:25:55.463Z,17.48
2022-10-23T12:28:42.951Z,16.35
2022-10-23T12:31:48.162Z,15.43
2022-10-23T12:34:45.409Z,15.45
2022-10-23T12:38:01.773Z,21.05
2022-10-23T12:40:30.261Z,14.60
2022-10-23T12:43:00.558Z,14.45
2022-10-23T12:45:32.079Z,18.25
2022-10-23T12:47:59.973Z,20.40
2022-10-23T12:50:29.508Z,17.02
2022-10-23T12:53:21.618Z,21.30
2022-10-23T12:58:32.111Z,24.35
2022-10-23T13:01:06.230Z,18.48
2022-10-23T13:03:34.372Z,18.88
2022-10-23T13:06:03.244Z,19.20
2022-10-23T13:08:40.692Z,19.98
2022-10-23T13:11:30.138Z,22.10
2022-10-23T13:14:01.730Z,22.02
2022-10-23T13:16:28.728Z,19.08
2022-10-23T13:18:55.643Z,18.13
2022-10-23T13:21:26.624Z,18.40
2022-10-23T13:23:54.300Z,19.45
2022-10-23T13:26:45.265Z,19.98
2022-10-23T13:31:53.099Z,27.08
2022-10-23T13:34:28.350Z,19.25
2022-10-23T13:37:27.807Z,18.10
2022-10-23T13:40:10.204Z,22.15
2022-10-23T13:42:37.216Z,17.73
2022-10-23T13:45:05.940Z,22.58
2022-10-23T13:47:32.824Z,28.17
2022-10-23T13:49:59.683Z,21.08
2022-10-23T13:52:26.625Z,20.38
2022-10-23T13:54:53.540Z,20.02
2022-10-23T13:57:20.451Z,21.33
2022-10-23T13:59:47.417Z,21.90
2022-10-23T14:02:21.483Z,23.73
2022-10-23T14:04:50.424Z,19.50
2022-10-23T14:07:17.599Z,23.08
2022-10-23T14:09:44.991Z,20.23
2022-10-23T14:12:12.436Z,19.05
2022-10-23T14:14:39.423Z,20.25
2022-10-23T14:17:06.291Z,21.15
2022-10-23T14:19:34.229Z,21.50
2022-10-23T14:22:01.229Z,21.30
2022-10-23T14:24:28.098Z,16.73
2022-10-23T14:26:57.489Z,22.27
2022-10-23T14:29:24.682Z,19.55
2022-10-23T14:31:51.994Z,21.73
2022-10-23T14:34:18.972Z,18.13
2022-10-23T14:36:50.200Z,22.38
2022-10-23T14:39:18.191Z,17.42
2022-10-23T14:41:45.259Z,18.67
2022-10-23T14:44:12.178Z,20.50
2022-10-23T14:46:39.045Z,14.70
2022-10-23T14:49:06.422Z,19.48
2022-10-23T14:51:33.720Z,16.65
2022-10-23T14:54:05.847Z,23.10
2022-10-23T14:56:37.481Z,23.55
2022-10-23T14:59:05.022Z,19.48
2022-10-23T15:01:36.738Z,31.98
2022-10-23T15:04:04.408Z,24.42
2022-10-23T15:06:31.646Z,16.67
2022-10-23T15:08:58.747Z,17.58
2022-10-23T15:11:26.674Z,17.63
2022-10-23T15:13:54.723Z,19.13
2022-10-23T15:16:23.516Z,20.88
2022-10-23T15:18:50.825Z,16.92
2022-10-23T15:21:18.160Z,17.00
2022-10-23T15:23:46.358Z,20.08
2022-10-23T15:26:21.718Z,22.65
2022-10-23T15:28:58.440Z,21.20
2022-10-23T15:31:43.175Z,25.90
2022-10-23T15:34:14.661Z,21.45
2022-10-23T15:36:42.764Z,18.63
2022-10-23T15:39:11.531Z,22.60
2022-10-23T15:41:40.786Z,18.02
2022-10-23T15:44:11.877Z,19.77
2022-10-23T15:46:38.748Z,20.13
2022-10-23T15:49:06.288Z,21.42
2022-10-23T15:51:33.177Z,19.95
2022-10-23T15:54:00.125Z,23.08
2022-10-23T15:56:27.005Z,22.00
2022-10-23T15:58:53.879Z,23.25
2022-10-23T16:01:20.946Z,22.42
2022-10-23T16:03:47.926Z,21.38
2022-10-23T16:06:18.195Z,21.45
2022-10-23T16:08:45.503Z,25.67
2022-10-23T16:11:37.068Z,27.02
2022-10-23T16:14:05.386Z,30.42
2022-10-23T16:16:33.535Z,23.40
2022-10-23T16:19:02.352Z,28.50
2022-10-23T16:21:33.708Z,23.70
2022-10-23T16:24:03.208Z,27.48
2022-10-23T16:26:30.545Z,22.10
2022-10-23T16:29:03.960Z,24.02
2022-10-23T16:31:30.901Z,20.48
2022-10-23T16:34:00.600Z,25.02
2022-10-23T16:36:28.132Z,21.98
2022-10-23T16:39:18.702Z,24.45
2022-10-23T16:42:04.960Z,20.88
2022-10-23T16:44:44.446Z,23.65
2022-10-23T16:47:11.382Z,24.60
2022-10-23T16:49:38.294Z,28.38
2022-10-23T16:52:05.207Z,30.00
2022-10-23T16:54:32.312Z,35.25
2022-10-23T16:56:59.221Z,31.38
2022-10-23T16:59:26.157Z,32.22
2022-10-23T17:01:53.571Z,27.65
2022-10-23T17:04:20.853Z,29.38
2022-10-23T17:06:47.799Z,28.95
2022-10-23T17:09:15.045Z,33.67
2022-10-23T17:11:44.937Z,29.90
2022-10-23T17:14:17.441Z,37.28
2022-10-23T17:16:50.761Z,41.47
2022-10-23T17:22:10.837Z,47.38
2022-10-23T17:24:39.759Z,53.00
2022-10-23T17:27:06.950Z,54.35
2022-10-23T17:29:33.865Z,48.72
2022-10-23T17:32:00.966Z,52.05
2022-10-23T17:34:27.854Z,50.33
2022-10-23T17:36:56.310Z,60.72
2022-10-23T17:39:27.188Z,64.63
2022-10-23T17:41:55.435Z,73.60
2022-10-23T17:44:22.371Z,70.93
2022-10-23T17:46:54.447Z,61.53
2022-10-23T17:49:23.084Z,57.03
2022-10-23T17:51:55.802Z,50.70
2022-10-23T17:54:23.853Z,43.53
2022-10-23T17:56:50.738Z,44.03
2022-10-23T17:59:21.228Z,44.65
2022-10-23T18:01:49.082Z,40.80
2022-10-23T18:04:19.074Z,37.22
2022-10-23T18:06:52.757Z,38.53
2022-10-23T18:09:22.009Z,37.25
2022-10-23T18:11:50.005Z,35.08
2022-10-23T18:14:19.303Z,42.72
2022-10-23T18:16:46.489Z,41.67
2022-10-23T18:19:15.355Z,41.42
2022-10-23T18:21:42.244Z,42.70
2022-10-23T18:24:09.244Z,43.08
2022-10-23T18:26:39.146Z,42.30
2022-10-23T18:29:09.740Z,43.45
2022-10-23T18:31:38.176Z,45.47
2022-10-23T18:34:09.270Z,49.05
2022-10-23T18:36:40.601Z,50.20
2022-10-23T18:39:12.949Z,60.95
2022-10-23T18:41:42.371Z,66.28
2022-10-23T18:44:11.183Z,61.53
2022-10-23T18:46:38.058Z,60.85
2022-10-23T18:49:05.091Z,61.42
2022-10-23T18:51:35.225Z,68.30
2022-10-23T18:54:09.455Z,62.00
2022-10-23T18:56:38.248Z,73.07
2022-10-23T18:59:09.687Z,104.28
2022-10-23T19:01:36.949Z,84.07
2022-10-23T19:04:05.472Z,74.15
2022-10-23T19:06:35.688Z,77.90
2022-10-23T19:09:02.851Z,78.90
2022-10-23T19:11:29.955Z,78.45
2022-10-23T19:13:56.853Z,71.53
2022-10-23T19:16:41.828Z,67.03
2022-10-23T19:19:21.945Z,68.95
2022-10-23T19:21:49.982Z,61.47
2022-10-23T19:24:24.283Z,66.60
2022-10-23T19:26:51.512Z,66.15
2022-10-23T19:29:22.059Z,69.35
2022-10-23T19:31:49.480Z,69.70
2022-10-23T19:34:22.567Z,70.03
2022-10-23T19:36:51.475Z,72.57
2022-10-23T19:39:19.064Z,64.28
2022-10-23T19:41:46.679Z,62.58
2022-10-23T19:44:14.888Z,73.82
2022-10-23T19:46:41.742Z,62.35
2022-10-23T19:49:09.062Z,59.30
2022-10-23T19:51:36.669Z,62.63
2022-10-23T19:54:04.383Z,59.72
2022-10-23T19:56:31.237Z,60.08
2022-10-23T19:58:58.055Z,67.20
2022-10-23T20:01:26.067Z,66.13
2022-10-23T20:03:54.796Z,59.65
2022-10-23T20:06:26.055Z,64.68
2022-10-23T20:08:53.185Z,59.92
2022-10-23T20:11:28.192Z,63.05
2022-10-23T20:13:55.757Z,62.80
2022-10-23T20:16:30.230Z,59.30
2022-10-23T20:18:58.270Z,61.58
2022-10-23T20:21:25.575Z,66.18
2022-10-23T20:23:52.479Z,64.30
2022-10-23T20:26:21.927Z,62.65
2022-10-23T20:28:52.520Z,75.38
2022-10-23T20:31:24.329Z,72.57
2022-10-23T20:33:52.032Z,76.75
2022-10-23T20:36:33.685Z,71.80
2022-10-23T20:39:05.428Z,75.28
2022-10-23T20:41:33.791Z,70.63
2022-10-23T20:44:00.856Z,70.68
2022-10-23T20:46:27.866Z,71.57
2022-10-23T20:48:54.807Z,72.28
2022-10-23T20:51:24.452Z,69.38
2022-10-23T20:53:53.224Z,66.68
2022-10-23T20:56:33.145Z,63.42
2022-10-23T20:59:09.708Z,67.22
2022-10-23T21:01:39.660Z,68.45
2022-10-23T21:04:06.873Z,67.70
2022-10-23T21:06:45.663Z,64.00
2022-10-23T21:09:13.244Z,62.15
2022-10-23T21:11:40.155Z,54.72
2022-10-23T21:14:07.060Z,48.38
2022-10-23T21:16:44.251Z,60.75
2022-10-23T21:19:13.792Z,62.40
2022-10-23T21:21:40.654Z,70.70
2022-10-23T21:24:12.857Z,71.13
2022-10-23T21:26:39.696Z,83.40
2022-10-23T21:29:17.952Z,76.25
2022-10-23T21:31:51.456Z,70.70
2022-10-23T21:34:18.301Z,80.93
2022-10-23T21:37:10.808Z,62.72
2022-10-23T21:39:34.242Z,60.10
2022-10-23T21:42:01.109Z,48.17
2022-10-23T21:44:27.944Z,42.42
2022-10-23T21:46:55.313Z,34.73
2022-10-23T21:49:22.247Z,42.70
2022-10-23T21:51:49.157Z,39.08
2022-10-23T21:54:15.986Z,42.53
2022-10-23T21:56:45.717Z,35.97
2022-10-23T21:59:16.676Z,36.92
2022-10-23T22:01:46.099Z,39.72
2022-10-23T22:04:15.375Z,36.38
2022-10-23T22:06:44.320Z,41.05
2022-10-23T22:09:14.843Z,43.10
2022-10-23T22:11:41.987Z,39.53
2022-10-23T22:14:08.872Z,39.20
2022-10-23T22:16:35.776Z,44.75
2022-10-23T22:19:03.130Z,38.67
2022-10-23T22:21:31.793Z,40.25
2022-10-23T22:24:00.755Z,43.27
2022-10-23T22:26:40.861Z,40.73
2022-10-23T22:29:15.205Z,39.20
2022-10-23T22:31:45.790Z,41.60
2022-10-23T22:34:28.719Z,39.00
2022-10-23T22:37:12.104Z,43.03
2022-10-23T22:39:39.551Z,39.03
2022-10-23T22:42:06.422Z,40.00
2022-10-23T22:44:33.302Z,35.85
2022-10-23T22:47:00.180Z,41.30
2022-10-23T22:49:27.004Z,36.47
2022-10-23T22:51:53.819Z,39.28
2022-10-23T22:54:20.679Z,37.08
2022-10-23T22:56:47.570Z,44.17
2022-10-23T22:59:14.453Z,35.08
2022-10-23T23:01:46.231Z,37.90
2022-10-23T23:04:36.743Z,39.70
2022-10-23T23:07:03.961Z,35.90
2022-10-23T23:09:30.886Z,32.28
2022-10-23T23:11:57.756Z,34.72
2022-10-23T23:14:24.772Z,37.13
2022-10-23T23:16:52.886Z,34.55
2022-10-23T23:19:20.107Z,39.63
2022-10-23T23:21:47.052Z,34.50
2022-10-23T23:24:14.639Z,37.00
2022-10-23T23:26:41.496Z,38.35
2022-10-23T23:29:08.335Z,40.67
2022-10-23T23:31:35.161Z,36.17
2022-10-23T23:34:02.017Z,33.38
2022-10-23T23:36:29.204Z,31.08
2022-10-23T23:38:58.010Z,35.13
2022-10-23T23:41:26.724Z,30.13
2022-10-23T23:43:56.668Z,30.33
2022-10-23T23:46:24.060Z,31.57
2022-10-23T23:48:50.971Z,29.70
2022-10-23T23:51:21.809Z,28.77
2022-10-23T23:53:50.319Z,29.85
2022-10-23T23:56:17.929Z,29.83
2022-10-23T23:58:45.187Z,30.17
